Atwood, CO

5:06 PM MDT on July 31, 2014 (GMT -0600)
Kimball Municipal-Arraj (KIBM) Elev 4925 ft | 41.19 °N, 103.68 °W | Change Station

Current weather conditions updated 11 minutes ago

Mostly Cloudy
Mostly Cloudy
81 °F
Feels Like 81 °F
N
4
Wind Variable Wind from NNE

Tomorrow is forecast to be Warmer than today.

Today
High -- | Low -- °F
--% Chance of Precip.
Yesterday
High -- | Low -- °F
Precip. -- in
5:49 AM 8:09 PM
Waxing Crescent, 21% visible
Pressure 30.19 in
Visibility 10.0 miles
Clouds Mostly Cloudy 8500 ft
Dew Point 44 °F
Humidity 27%
Rainfall 0.00 in
Snow Depth Not available.
UV 2 out of 12
Pollen 6.90 out of 12
Air Quality Not available.
Flu Activity Not available.
METAR KIBM 312255Z AUTO 03003KT 10SM BKN085 27/07 A3019 RMK AO2 T02710065

More Conditions Fewer Conditions

Pressure 30.19 in
Visibility 10.0 miles
Clouds Mostly Cloudy 8500 ft
Dew Point 44 °F
Humidity 27%
Rainfall 0.00 in
Snow Depth Not available.
UV 2 out of 12
Pollen 6.90 out of 12
Air Quality Not available.
Flu Activity Not available.
METAR KIBM 312255Z AUTO 03003KT 10SM BKN085 27/07 A3019 RMK AO2 T02710065

More Conditions Fewer Conditions

10-Day Weather Forecast

Almanac

Astronomy

Jul. 31, 2014 Rise Set
Actual Time 5:49 AM MDT 8:09 PM MDT
Civil Twilight 5:18 AM MDT 8:39 PM MDT
Nautical Twilight 4:40 AM MDT 9:17 PM MDT
Astronomical Twilight 3:58 AM MDT 9:59 PM MDT
Moon 10:20 AM MDT 10:21 PM MDT
Length of Visible Light 15h 21m
Length of Day
14h 19m
Tomorrow will be 2m 1s shorter.
Waxing Crescent, 21% of the Moon is Illuminated
Today
Waxing Crescent
Aug 3
First Quarter
Aug 10
Full
Aug 17
Last Quarter
Aug 25
New

Today's Extremes

State Highs State Lows

Community

WunderPhotos

Upload Photos

1,739,466 photos uploaded!

Nearby

Snow Depth

Station Depth Elevation
Wild Basin 0 in 9560 ft
University Camp 0 in 10300 ft
Lake Irene 2 in 10700 ft
Joe Wright 0 in 10120 ft
Echo Lake 0 in 10600 ft

Earthquake Activity

City Distance Mag. Time & Date
No recent earthquake activity has been reported nearby.
Minimum magnitude displayed is 2.5.

Coastal Water Temperatures

Place Temperature
No Stations Reporting

Nearby Weather Stations

Station Location Temp. Heat Index Dew Point Humidity Wind Precip. Elev Updated Type
Charmony, Sterling, CO 90.7 °F 89 °F 54 °F 29% West  at  0.0 mph - / hr 3930 ft 5:06 PM MDT Normal
Northern Washington County, Akron, CO 82.8 °F 81 °F 46 °F 28% SW  at  2.7 mph - / hr 4453 ft 5:03 PM MDT Normal

Show More Stations Show Fewer Stations